createdAt,value
2022-11-20T00:03:54.217Z,89.56
2022-11-20T00:08:52.986Z,89.04
2022-11-20T00:13:51.412Z,88.58
2022-11-20T00:18:48.752Z,88.75
2022-11-20T00:23:45.733Z,89.27
2022-11-20T00:28:44.770Z,89.59
2022-11-20T00:33:42.431Z,88.96
2022-11-20T00:38:39.398Z,88.91
2022-11-20T00:43:37.373Z,88.96
2022-11-20T00:48:35.182Z,88.97
2022-11-20T00:53:32.420Z,88.95
2022-11-20T00:58:31.979Z,88.98
2022-11-20T01:03:32.196Z,89.00
2022-11-20T01:08:32.326Z,89.16
2022-11-20T01:13:39.531Z,89.89
2022-11-20T01:18:37.125Z,90.41
2022-11-20T01:23:36.108Z,90.72
2022-11-20T01:28:33.657Z,91.24
2022-11-20T01:33:30.614Z,91.78
2022-11-20T01:38:27.626Z,92.69
2022-11-20T01:43:26.333Z,92.54
2022-11-20T01:48:26.403Z,92.18
2022-11-20T01:53:28.931Z,91.30
2022-11-20T01:58:33.297Z,90.36
2022-11-20T02:03:30.388Z,89.68
2022-11-20T02:08:27.460Z,89.43
2022-11-20T02:13:41.862Z,88.72
2022-11-20T02:18:39.950Z,88.63
2022-11-20T02:23:40.763Z,88.12
2022-11-20T02:28:38.726Z,88.12
2022-11-20T02:33:35.776Z,88.81
2022-11-20T02:38:32.684Z,89.38
2022-11-20T02:43:29.547Z,87.46
2022-11-20T02:48:30.156Z,86.92
2022-11-20T02:53:29.854Z,87.11
2022-11-20T02:58:26.658Z,86.59
2022-11-20T03:03:23.726Z,86.55
2022-11-20T03:08:21.402Z,86.23
2022-11-20T03:13:18.333Z,86.61
2022-11-20T03:18:15.373Z,86.20
2022-11-20T03:23:12.387Z,85.67
2022-11-20T03:28:09.871Z,86.13
2022-11-20T03:33:07.166Z,85.44
2022-11-20T03:38:04.042Z,85.35
2022-11-20T03:43:00.939Z,85.49
2022-11-20T03:47:58.472Z,86.46
2022-11-20T03:52:55.473Z,86.84
2022-11-20T03:57:52.554Z,85.99
2022-11-20T04:02:49.597Z,86.36
2022-11-20T04:07:47.407Z,86.38
2022-11-20T04:12:44.403Z,85.58
2022-11-20T04:17:41.383Z,86.17
2022-11-20T04:22:38.424Z,86.35
2022-11-20T04:27:36.018Z,86.72
2022-11-20T04:32:32.940Z,86.34
2022-11-20T04:37:29.836Z,86.83
2022-11-20T04:42:29.397Z,87.11
2022-11-20T04:47:26.895Z,87.48
2022-11-20T04:52:24.228Z,87.11
2022-11-20T04:57:21.305Z,87.42
2022-11-20T05:02:18.427Z,88.08
2022-11-20T05:07:16.882Z,88.15
2022-11-20T05:12:14.265Z,88.59
2022-11-20T05:17:11.934Z,87.82
2022-11-20T05:22:08.911Z,88.31
2022-11-20T05:27:06.704Z,88.34
2022-11-20T05:32:03.791Z,88.50
2022-11-20T05:37:00.681Z,89.00
2022-11-20T05:42:12.069Z,89.90
2022-11-20T05:47:12.025Z,87.81
2022-11-20T05:52:09.060Z,87.60
2022-11-20T05:57:05.950Z,87.24
2022-11-20T06:02:02.889Z,86.04
2022-11-20T06:07:00.450Z,86.00
2022-11-20T06:11:57.441Z,85.08
2022-11-20T06:16:54.442Z,84.86
2022-11-20T06:21:51.626Z,83.85
2022-11-20T06:26:49.195Z,83.64
2022-11-20T06:31:51.531Z,84.38
2022-11-20T06:36:50.390Z,84.72
2022-11-20T06:41:57.260Z,84.24
2022-11-20T06:46:55.731Z,84.32
2022-11-20T06:51:52.521Z,83.46
2022-11-20T06:56:50.819Z,81.47
2022-11-20T07:01:48.196Z,80.61
2022-11-20T07:06:45.251Z,81.08
2022-11-20T07:11:42.213Z,79.96
2022-11-20T07:16:40.667Z,80.32
2022-11-20T07:21:37.966Z,80.58
2022-11-20T07:26:35.917Z,81.53
2022-11-20T07:31:36.028Z,81.90
2022-11-20T07:36:34.099Z,82.57
2022-11-20T07:41:30.965Z,81.26
2022-11-20T07:46:28.054Z,81.51
2022-11-20T07:51:26.400Z,81.59
2022-11-20T07:56:23.934Z,81.00
2022-11-20T08:01:21.531Z,80.73
2022-11-20T08:06:19.912Z,80.15
2022-11-20T08:11:34.673Z,78.58
2022-11-20T08:16:32.579Z,78.11
2022-11-20T08:21:36.721Z,77.33
2022-11-20T08:26:35.726Z,76.16
2022-11-20T08:31:33.880Z,75.07
2022-11-20T08:36:34.501Z,74.76
2022-11-20T08:41:37.226Z,74.64
2022-11-20T08:46:37.757Z,72.83
2022-11-20T08:51:35.374Z,73.42
2022-11-20T08:56:33.148Z,74.08
2022-11-20T09:01:30.921Z,73.25
2022-11-20T09:06:28.568Z,73.83
2022-11-20T09:11:25.590Z,73.13
2022-11-20T09:16:22.687Z,73.64
2022-11-20T09:21:19.662Z,73.15
2022-11-20T09:26:17.328Z,72.94
2022-11-20T09:31:22.867Z,72.54
2022-11-20T09:36:20.467Z,72.69
2022-11-20T09:41:46.279Z,71.74
2022-11-20T09:46:54.569Z,71.71
2022-11-20T09:51:58.856Z,71.69
2022-11-20T09:57:00.487Z,71.65
2022-11-20T10:01:59.386Z,71.38
2022-11-20T10:07:31.028Z,70.86
2022-11-20T10:12:31.448Z,70.79
2022-11-20T10:17:52.841Z,70.37
2022-11-20T10:23:02.555Z,70.35
2022-11-20T10:28:13.961Z,70.10
2022-11-20T10:33:18.267Z,70.02
2022-11-20T10:38:21.601Z,70.01
2022-11-20T10:43:22.620Z,69.65
2022-11-20T10:48:22.439Z,69.97
2022-11-20T10:53:32.635Z,69.83
2022-11-20T10:58:38.024Z,69.91
2022-11-20T11:03:35.584Z,70.20
2022-11-20T11:08:39.584Z,69.75
2022-11-20T11:13:40.244Z,69.58
2022-11-20T11:18:43.197Z,70.30
2022-11-20T11:23:42.010Z,71.15
2022-11-20T11:28:39.832Z,71.63
2022-11-20T11:33:36.989Z,72.43
2022-11-20T11:38:37.342Z,72.75
2022-11-20T11:43:55.198Z,73.61
2022-11-20T11:48:58.091Z,74.05
2022-11-20T11:53:55.164Z,74.89
2022-11-20T11:59:01.565Z,76.01
2022-11-20T12:04:07.112Z,77.32
2022-11-20T12:09:06.805Z,79.31
2022-11-20T12:14:10.956Z,79.94
2022-11-20T12:19:12.761Z,80.79
2022-11-20T12:24:38.597Z,80.82
2022-11-20T12:29:52.331Z,81.06
2022-11-20T12:35:05.002Z,80.94
2022-11-20T12:40:22.323Z,80.95
2022-11-20T12:45:41.226Z,80.67
2022-11-20T12:51:16.267Z,81.00
2022-11-20T12:56:21.240Z,80.68
2022-11-20T13:01:42.680Z,80.07
2022-11-20T13:06:43.105Z,80.76
2022-11-20T13:11:46.800Z,81.07
2022-11-20T13:16:51.283Z,81.17
2022-11-20T13:21:51.911Z,81.36
2022-11-20T13:26:49.092Z,80.98
2022-11-20T13:31:48.147Z,81.22
2022-11-20T13:36:53.930Z,81.11
2022-11-20T13:41:55.316Z,81.29
2022-11-20T13:46:52.465Z,81.63
2022-11-20T13:51:51.788Z,82.01
2022-11-20T13:57:06.112Z,81.87
2022-11-20T14:02:03.582Z,82.04
2022-11-20T14:07:02.032Z,82.83
2022-11-20T14:12:02.629Z,82.53
2022-11-20T14:17:08.044Z,83.63
2022-11-20T14:22:12.454Z,83.48
2022-11-20T14:27:15.271Z,84.16
2022-11-20T14:32:15.266Z,84.34
2022-11-20T14:37:18.152Z,84.00
2022-11-20T14:42:17.431Z,83.97
2022-11-20T14:47:19.264Z,83.78
2022-11-20T14:52:20.051Z,84.06
2022-11-20T14:57:28.714Z,83.93
2022-11-20T15:02:25.699Z,83.65
2022-11-20T15:07:28.725Z,83.85
2022-11-20T15:12:25.884Z,83.34
2022-11-20T15:17:23.504Z,83.35
2022-11-20T15:22:20.407Z,82.78
2022-11-20T15:27:18.455Z,82.41
2022-11-20T15:32:15.789Z,82.52
2022-11-20T15:37:13.164Z,83.05
2022-11-20T15:42:10.904Z,82.12
2022-11-20T15:47:10.322Z,82.60
2022-11-20T15:52:10.206Z,83.11
2022-11-20T15:57:07.278Z,83.72
2022-11-20T16:02:06.478Z,84.06
2022-11-20T16:07:04.412Z,83.51
2022-11-20T16:12:05.914Z,83.96
2022-11-20T16:17:03.975Z,85.05
2022-11-20T16:22:04.428Z,85.49
2022-11-20T16:27:03.788Z,85.55
2022-11-20T16:32:01.012Z,85.94
2022-11-20T16:36:58.222Z,85.73
2022-11-20T16:41:55.356Z,86.10
2022-11-20T16:46:53.325Z,85.87
2022-11-20T16:51:52.147Z,85.54
2022-11-20T16:56:51.183Z,85.60
2022-11-20T17:01:48.545Z,85.12
2022-11-20T17:06:48.130Z,85.01
2022-11-20T17:11:45.211Z,84.92
2022-11-20T17:16:44.709Z,84.85
2022-11-20T17:21:43.991Z,85.13
2022-11-20T17:26:43.206Z,85.12
2022-11-20T17:31:41.246Z,84.89
2022-11-20T17:36:44.811Z,84.95
2022-11-20T17:41:43.267Z,84.64
2022-11-20T17:46:40.628Z,84.84
2022-11-20T17:51:37.804Z,84.97
2022-11-20T17:56:57.443Z,84.69
2022-11-20T18:02:02.241Z,84.80
2022-11-20T18:07:01.317Z,84.72
2022-11-20T18:11:58.731Z,84.67
2022-11-20T18:16:58.851Z,84.90
2022-11-20T18:21:56.569Z,85.03
2022-11-20T18:26:54.944Z,85.19
2022-11-20T18:31:55.091Z,85.30
2022-11-20T18:36:56.098Z,85.40
2022-11-20T18:42:11.298Z,85.60
2022-11-20T18:47:14.788Z,85.68
2022-11-20T18:52:13.322Z,85.57
2022-11-20T18:57:16.751Z,85.67
2022-11-20T19:02:23.726Z,85.65
2022-11-20T19:07:31.182Z,85.93
2022-11-20T19:12:28.464Z,86.00
2022-11-20T19:17:25.894Z,86.00
2022-11-20T19:22:23.867Z,86.17
2022-11-20T19:27:21.432Z,86.01
2022-11-20T19:32:18.693Z,85.63
2022-11-20T19:37:16.187Z,85.00
2022-11-20T19:42:16.438Z,84.98
2022-11-20T19:47:14.840Z,85.13
2022-11-20T19:52:12.398Z,84.96
2022-11-20T19:57:09.580Z,84.54
2022-11-20T20:02:09.555Z,83.54
2022-11-20T20:07:07.095Z,83.12
2022-11-20T20:12:04.876Z,83.11
2022-11-20T20:17:01.942Z,82.96
2022-11-20T20:22:02.493Z,82.92
2022-11-20T20:26:59.619Z,84.00
2022-11-20T20:32:00.369Z,84.52
2022-11-20T20:37:03.452Z,84.74
2022-11-20T20:42:04.459Z,85.60
2022-11-20T20:47:05.566Z,86.08
2022-11-20T20:52:22.510Z,86.16
2022-11-20T20:57:28.690Z,86.22
2022-11-20T21:02:26.104Z,87.31
2022-11-20T21:07:25.568Z,87.83
2022-11-20T21:12:25.481Z,88.15
2022-11-20T21:17:28.614Z,87.97
2022-11-20T21:22:25.969Z,88.08
2022-11-20T21:27:29.434Z,88.06
2022-11-20T21:32:26.568Z,88.77
2022-11-20T21:37:23.554Z,89.90
2022-11-20T21:42:22.528Z,90.78
2022-11-20T21:47:20.424Z,91.50
2022-11-20T21:52:20.281Z,91.48
2022-11-20T21:57:17.365Z,90.81
2022-11-20T22:02:14.575Z,90.99
2022-11-20T22:07:15.508Z,91.66
2022-11-20T22:12:12.902Z,92.47
2022-11-20T22:17:13.246Z,93.04
2022-11-20T22:22:10.411Z,93.19
2022-11-20T22:27:10.418Z,93.71
2022-11-20T22:32:08.226Z,93.02
2022-11-20T22:37:05.258Z,93.38
2022-11-20T22:42:02.354Z,94.04
2022-11-20T22:47:07.460Z,94.17
2022-11-20T22:52:11.615Z,93.83
2022-11-20T22:57:08.913Z,91.33
2022-11-20T23:02:08.503Z,90.87
2022-11-20T23:07:08.429Z,90.40
2022-11-20T23:12:09.104Z,90.81
2022-11-20T23:17:10.154Z,91.56
2022-11-20T23:22:08.272Z,92.23
2022-11-20T23:27:05.748Z,92.66
2022-11-20T23:32:11.872Z,92.69
2022-11-20T23:37:09.036Z,92.72
2022-11-20T23:42:08.801Z,93.31
2022-11-20T23:47:09.642Z,94.00
2022-11-20T23:52:06.782Z,94.32
2022-11-20T23:57:03.908Z,94.08
